Time;durP1;ratioP1;P1;durP2;ratioP2;P2;SDS_P1;SDS_P2;PMS_P1;PMS_P2;Temp;Humidity;BMP_temperature;BMP_pressure;BME280_temperature;BME280_humidity;BME280_pressure;Samples;Min_cycle;Max_cycle;Signal;HPM_P1;HPM_P2
2022/03/06 15:26:20;;;;;;;;;29.50;25.50;;;;;18.19;31.99;101841.59;5113714;27;45467;-86
2022/03/06 15:28:47;;;;;;;;;40.00;34.25;;;;;17.45;31.06;101838.44;5112729;27;45314;-82
2022/03/06 15:31:16;;;;;;;;;34.75;31.75;;;;;16.96;31.66;101847.19;5119180;27;45434;-82
2022/03/06 15:33:43;;;;;;;;;36.25;32.00;;;;;16.36;30.51;101844.16;5108528;27;45373;-87
2022/03/06 15:36:08;;;;;;;;;31.50;29.75;;;;;15.92;30.06;101848.59;5093974;27;45471;-79
2022/03/06 15:38:34;;;;;;;;;33.00;29.50;;;;;15.57;30.96;101848.03;5091249;27;45358;-77
2022/03/06 15:41:00;;;;;;;;;33.75;28.00;;;;;15.27;31.25;101851.16;5093876;27;45284;-76
2022/03/06 15:43:25;;;;;;;;;34.00;30.00;;;;;15.19;31.28;101855.13;5093879;27;45357;-80
2022/03/06 15:45:51;;;;;;;;;33.50;30.00;;;;;15.08;30.60;101859.91;5092995;27;45286;-77
2022/03/06 15:48:18;;;;;;;;;29.75;27.25;;;;;14.95;31.16;101845.44;5093014;27;45265;-82
2022/03/06 15:50:44;;;;;;;;;38.50;30.25;;;;;14.95;31.96;101853.28;5092713;27;45308;-80
2022/03/06 15:53:10;;;;;;;;;31.75;27.25;;;;;14.90;31.19;101854.78;5093184;27;45635;-74
2022/03/06 15:55:36;;;;;;;;;35.25;30.75;;;;;14.81;31.54;101843.13;5091865;27;46184;-77
2022/03/06 15:58:01;;;;;;;;;30.00;29.75;;;;;14.78;31.51;101853.41;5093643;27;45449;-78
2022/03/06 16:00:27;;;;;;;;;32.50;29.50;;;;;14.65;31.26;101844.13;5093172;27;45580;-79
2022/03/06 16:02:53;;;;;;;;;33.75;28.50;;;;;14.59;31.06;101849.03;5093339;27;45465;-81
2022/03/06 16:05:19;;;;;;;;;34.50;31.50;;;;;14.48;31.59;101851.19;5093235;27;45449;-81
2022/03/06 16:07:44;;;;;;;;;30.75;27.75;;;;;14.42;32.00;101843.06;5092868;27;45359;-80
2022/03/06 16:10:10;;;;;;;;;35.25;30.75;;;;;14.28;32.08;101832.00;5091712;27;45475;-81
2022/03/06 16:12:36;;;;;;;;;37.25;32.00;;;;;14.25;31.86;101847.53;5093071;27;45369;-80
2022/03/06 16:15:02;;;;;;;;;30.75;25.50;;;;;14.07;31.72;101838.00;5108722;27;46407;-83
2022/03/06 16:17:28;;;;;;;;;34.50;30.00;;;;;14.03;31.83;101851.72;5092866;27;45441;-82
2022/03/06 16:19:53;;;;;;;;;33.50;30.00;;;;;14.03;31.67;101867.34;5092903;27;45341;-82
2022/03/06 16:22:19;;;;;;;;;35.00;30.00;;;;;13.86;31.88;101857.81;5093244;27;45555;-82
2022/03/06 16:24:45;;;;;;;;;31.50;26.50;;;;;13.62;32.31;101835.91;5092667;27;45588;-82
2022/03/06 16:27:10;;;;;;;;;32.75;26.75;;;;;13.71;32.10;101861.50;5092108;27;45543;-82
2022/03/06 16:29:36;;;;;;;;;34.25;31.25;;;;;13.64;31.91;101842.91;5092021;27;45539;-79
2022/03/06 16:32:04;;;;;;;;;32.00;26.75;;;;;13.66;32.14;101857.75;5092168;27;45374;-78
2022/03/06 16:34:35;;;;;;;;;32.00;29.75;;;;;13.56;32.13;101830.38;5091931;27;46296;-78
2022/03/06 16:37:02;;;;;;;;;35.00;29.50;;;;;13.61;32.19;101859.22;5081548;27;45451;-78
2022/03/06 16:39:31;;;;;;;;;33.00;26.50;;;;;13.55;32.27;101845.94;5078977;27;45304;-78
2022/03/06 16:41:59;;;;;;;;;34.00;28.25;;;;;13.52;32.38;101851.88;5079161;27;45349;-78
2022/03/06 16:44:25;;;;;;;;;27.25;23.75;;;;;13.40;32.36;101853.88;5078100;27;45540;-78
2022/03/06 16:46:50;;;;;;;;;32.75;30.25;;;;;13.40;32.48;101854.75;5078026;28;45484;-77
2022/03/06 16:49:16;;;;;;;;;35.50;31.00;;;;;13.37;32.54;101854.59;5078711;28;45427;-78
2022/03/06 16:51:41;;;;;;;;;39.25;32.75;;;;;13.25;32.91;101841.84;5078927;27;45382;-77
2022/03/06 16:54:07;;;;;;;;;29.50;26.75;;;;;13.25;32.89;101857.44;5078478;28;46235;-78
2022/03/06 16:56:33;;;;;;;;;30.00;28.00;;;;;13.10;33.32;101820.28;5078656;27;45465;-78
2022/03/06 16:58:58;;;;;;;;;36.75;31.50;;;;;13.13;33.19;101846.41;5078721;27;45444;-76
2022/03/06 17:01:24;;;;;;;;;38.00;32.75;;;;;13.13;33.55;101862.91;5078039;28;45271;-77
2022/03/06 17:03:50;;;;;;;;;39.00;33.00;;;;;13.02;34.01;101853.66;5078708;27;45860;-77
2022/03/06 17:06:16;;;;;;;;;47.00;36.00;;;;;12.96;34.08;101858.53;5077151;28;45381;-77
2022/03/06 17:08:41;;;;;;;;;39.25;34.00;;;;;12.77;34.94;101861.91;5078538;27;45228;-77
2022/03/06 17:11:07;;;;;;;;;47.00;37.25;;;;;12.65;35.83;101860.44;5080474;27;45620;-76
2022/03/06 17:13:33;;;;;;;;;50.00;40.25;;;;;12.60;36.93;101861.88;5094866;27;45420;-76
2022/03/06 17:15:58;;;;;;;;;48.25;39.50;;;;;12.35;37.16;101858.00;5097134;27;45336;-76
2022/03/06 17:18:24;;;;;;;;;50.25;41.25;;;;;12.24;37.89;101861.69;5098319;27;45571;-75
2022/03/06 17:20:49;;;;;;;;;50.75;41.00;;;;;12.05;37.91;101860.66;5079029;27;45581;-76
2022/03/06 17:23:16;;;;;;;;;48.25;38.00;;;;;11.92;38.42;101866.84;5080337;27;45461;-76
2022/03/06 17:25:42;;;;;;;;;49.00;40.00;;;;;11.85;38.61;101866.41;5092297;27;45466;-77
2022/03/06 17:28:08;;;;;;;;;47.50;38.25;;;;;11.79;38.78;101869.53;5083977;27;45487;-77
2022/03/06 17:30:34;;;;;;;;;46.25;37.00;;;;;11.84;38.63;101872.41;5080315;27;45298;-79
2022/03/06 17:33:00;;;;;;;;;45.75;38.25;;;;;11.80;38.49;101876.53;5081222;27;45454;-76
2022/03/06 17:35:26;;;;;;;;;45.25;35.75;;;;;11.72;38.31;101875.19;5077883;27;45256;-76
2022/03/06 17:37:51;;;;;;;;;44.50;38.00;;;;;11.71;38.25;101889.88;5092757;27;45418;-76
2022/03/06 17:40:19;;;;;;;;;49.50;40.50;;;;;11.60;38.11;101885.78;5077553;27;45754;-77
2022/03/06 17:42:48;;;;;;;;;51.75;38.25;;;;;11.57;38.34;101888.19;5077042;27;45366;-77
2022/03/06 17:45:14;;;;;;;;;52.00;41.00;;;;;11.58;38.17;101901.22;5077284;27;45448;-76
2022/03/06 17:47:40;;;;;;;;;49.00;40.00;;;;;11.52;38.59;101900.88;5077364;27;45425;-76
2022/03/06 17:50:06;;;;;;;;;45.75;38.50;;;;;11.30;38.93;101877.97;5077711;27;45362;-77
2022/03/06 17:52:32;;;;;;;;;53.00;43.50;;;;;11.26;39.53;101902.81;5084364;27;45839;-78
2022/03/06 17:54:58;;;;;;;;;51.00;42.75;;;;;11.19;39.96;101902.34;5087693;27;45963;-79
2022/03/06 17:57:24;;;;;;;;;49.25;41.00;;;;;11.15;40.50;101915.16;5085893;27;45365;-79
2022/03/06 17:59:50;;;;;;;;;56.50;44.75;;;;;11.03;40.81;101911.81;5076261;27;45656;-79
2022/03/06 18:02:16;;;;;;;;;52.75;43.50;;;;;10.97;41.69;101921.78;5078338;27;47374;-77
2022/03/06 18:04:42;;;;;;;;;51.25;42.00;;;;;10.84;41.30;101920.16;5077516;27;46123;-77
2022/03/06 18:07:07;;;;;;;;;61.00;45.25;;;;;10.77;41.38;101921.47;5082394;27;45328;-78
2022/03/06 18:09:33;;;;;;;;;54.00;43.25;;;;;10.74;41.70;101923.91;5081717;27;45445;-80
2022/03/06 18:12:00;;;;;;;;;54.50;43.75;;;;;10.74;41.58;101934.25;5085380;27;45849;-77
2022/03/06 18:14:26;;;;;;;;;52.25;41.00;;;;;10.60;41.80;101907.47;5077356;28;45540;-85
2022/03/06 18:16:52;;;;;;;;;53.50;44.50;;;;;10.66;41.62;101930.25;5082543;27;45334;-82
2022/03/06 18:19:17;;;;;;;;;52.25;38.00;;;;;10.58;42.09;101944.44;5082103;27;45460;-84
2022/03/06 18:21:43;;;;;;;;;52.75;42.75;;;;;10.46;42.37;101940.28;5082106;27;45284;-82
2022/03/06 18:24:09;;;;;;;;;61.50;46.00;;;;;10.35;42.52;101923.13;5082103;27;45435;-81
2022/03/06 18:26:37;;;;;;;;;55.00;44.75;;;;;10.36;42.45;101938.78;5070184;27;45647;-79
2022/03/06 18:29:05;;;;;;;;;52.75;42.00;;;;;10.37;42.60;101950.00;5079994;27;45441;-80
2022/03/06 18:31:42;;;;;;;;;54.00;43.75;;;;;10.28;42.92;101939.94;5086304;27;45984;-82
2022/03/06 18:34:11;;;;;;;;;57.25;46.50;;;;;10.22;43.09;101936.97;5080198;27;45349;-87
2022/03/06 18:36:45;;;;;;;;;57.25;45.00;;;;;10.16;43.16;101932.31;5080595;27;45488;-82
2022/03/06 18:39:11;;;;;;;;;64.25;47.75;;;;;10.13;43.28;101944.16;5077300;27;45622;-81
2022/03/06 18:41:44;;;;;;;;;55.75;44.00;;;;;10.05;42.75;101939.34;5074383;27;46419;-81
2022/03/06 18:44:11;;;;;;;;;52.25;43.00;;;;;9.99;43.45;101944.16;5076810;27;45862;-81
2022/03/06 18:46:38;;;;;;;;;53.50;42.25;;;;;9.92;43.85;101934.22;5066568;27;45441;-81
2022/03/06 18:49:04;;;;;;;;;57.00;45.00;;;;;9.96;43.36;101943.94;5077317;27;45346;-81
2022/03/06 18:51:31;;;;;;;;;51.00;43.25;;;;;9.96;43.53;101946.53;5077631;28;47852;-86
2022/03/06 18:53:57;;;;;;;;;58.00;45.75;;;;;9.88;44.01;101940.84;5083492;27;45929;-84
2022/03/06 18:56:26;;;;;;;;;56.50;45.75;;;;;9.90;44.31;101956.47;5079078;27;45292;-83
2022/03/06 18:58:54;;;;;;;;;56.00;42.75;;;;;9.89;44.13;101945.22;5085088;27;45732;-84
2022/03/06 19:01:21;;;;;;;;;55.25;44.00;;;;;9.84;44.36;101953.47;5078511;27;45753;-85
2022/03/06 19:03:47;;;;;;;;;60.00;46.25;;;;;9.78;45.11;101953.97;5084285;27;45490;-85
2022/03/06 19:06:14;;;;;;;;;60.50;45.75;;;;;9.69;45.10;101943.00;5077457;27;45232;-84
2022/03/06 19:08:41;;;;;;;;;46.25;40.75;;;;;9.69;45.04;101958.53;5077657;27;46040;-85
2022/03/06 19:11:08;;;;;;;;;57.25;46.25;;;;;9.56;45.29;101947.34;5077730;27;46355;-87
2022/03/06 19:13:36;;;;;;;;;58.00;46.00;;;;;9.56;45.63;101957.69;5082210;27;45397;-86
2022/03/06 19:16:04;;;;;;;;;54.50;43.75;;;;;9.44;46.22;101954.31;5085875;27;45405;-88
2022/03/06 19:18:30;;;;;;;;;62.00;46.00;;;;;9.45;46.51;101966.41;5082353;27;45504;-86
2022/03/06 19:20:56;;;;;;;;;51.75;41.00;;;;;9.36;46.00;101950.28;5089044;27;45425;-87
2022/03/06 19:23:22;;;;;;;;;58.50;46.50;;;;;9.51;46.43;101955.59;5090680;27;45639;-78
2022/03/06 19:25:47;;;;;;;;;57.25;43.00;;;;;9.47;46.61;101959.66;5091691;27;45914;-89
2022/03/06 19:28:13;;;;;;;;;59.75;46.75;;;;;9.51;46.30;101972.03;5091230;27;45480;-86
2022/03/06 19:30:39;;;;;;;;;60.00;46.00;;;;;9.40;46.66;101953.19;5088362;27;45621;-89
2022/03/06 19:33:05;;;;;;;;;60.50;47.00;;;;;9.37;46.45;101952.06;5090509;27;45244;-86
2022/03/06 19:35:31;;;;;;;;;59.00;46.25;;;;;9.52;46.95;101981.56;5086644;27;45313;-86
2022/03/06 19:37:58;;;;;;;;;57.00;46.50;;;;;9.48;46.71;101979.56;5075854;28;45586;-82
2022/03/06 19:40:23;;;;;;;;;51.25;39.75;;;;;9.45;47.05;101990.59;5077875;28;46268;-88
2022/03/06 19:42:51;;;;;;;;;58.50;43.25;;;;;9.38;46.96;101974.56;5077484;27;45504;-83
2022/03/06 19:45:17;;;;;;;;;57.50;47.25;;;;;9.43;46.99;101986.13;5087415;27;45478;-87
2022/03/06 19:47:45;;;;;;;;;58.50;46.25;;;;;9.39;47.20;101982.44;5081852;27;45439;-85
2022/03/06 19:50:11;;;;;;;;;52.75;44.00;;;;;9.45;46.97;101992.25;5076259;28;46194;-86
2022/03/06 19:52:37;;;;;;;;;52.75;43.00;;;;;9.43;47.02;101999.03;5108315;27;45426;-85
2022/03/06 19:55:04;;;;;;;;;53.50;44.00;;;;;9.25;47.08;101968.53;5077461;27;45424;-83
2022/03/06 19:57:29;;;;;;;;;56.75;45.00;;;;;9.47;47.26;102005.31;5077457;28;45259;-86
2022/03/06 19:59:55;;;;;;;;;61.00;46.25;;;;;9.50;47.05;102009.00;5092832;27;46032;-85
2022/03/06 20:02:21;;;;;;;;;57.50;46.00;;;;;9.47;46.88;102003.63;5076757;27;45328;-86
2022/03/06 20:04:47;;;;;;;;;56.00;45.75;;;;;9.45;47.15;102002.59;5078436;27;45509;-87
2022/03/06 20:07:13;;;;;;;;;59.50;46.00;;;;;9.47;46.96;101994.97;5085303;27;45346;-86
2022/03/06 20:09:38;;;;;;;;;59.50;46.00;;;;;9.48;47.01;102007.13;5085354;27;45461;-85
2022/03/06 20:12:04;;;;;;;;;56.00;45.25;;;;;9.55;47.04;102017.97;5085085;27;45465;-85
2022/03/06 20:14:30;;;;;;;;;55.50;46.75;;;;;9.51;46.81;102013.38;5079312;28;45424;-85
2022/03/06 20:16:57;;;;;;;;;55.50;44.25;;;;;9.48;47.06;102008.00;5080458;27;46040;-83
2022/03/06 20:19:22;;;;;;;;;56.25;45.75;;;;;9.49;46.95;102020.13;5081020;27;46611;-82
2022/03/06 20:21:48;;;;;;;;;61.00;47.75;;;;;9.39;46.95;102004.78;5079022;27;45359;-86
2022/03/06 20:24:13;;;;;;;;;59.00;46.25;;;;;9.47;46.89;102023.41;5079555;27;45892;-82
2022/03/06 20:26:40;;;;;;;;;61.00;47.50;;;;;9.44;47.18;102022.41;5078051;27;45481;-83
2022/03/06 20:29:06;;;;;;;;;55.00;43.25;;;;;9.42;47.35;102017.94;5081354;28;45918;-84
2022/03/06 20:31:32;;;;;;;;;57.50;47.25;;;;;9.39;47.15;102017.72;5079402;28;45448;-84
2022/03/06 20:33:57;;;;;;;;;51.50;43.50;;;;;9.38;46.69;102034.00;5080087;27;45617;-84
2022/03/06 20:36:23;;;;;;;;;57.00;45.25;;;;;9.17;47.70;101995.53;5085780;27;45661;-86
2022/03/06 20:38:49;;;;;;;;;53.50;44.00;;;;;9.33;47.48;102035.38;5082013;27;45430;-87
2022/03/06 20:41:14;;;;;;;;;59.25;47.00;;;;;9.04;47.47;101990.31;5079993;27;45290;-86
2022/03/06 20:43:40;;;;;;;;;57.00;46.00;;;;;9.25;47.69;102022.81;5080207;27;45307;-88
2022/03/06 20:46:05;;;;;;;;;57.00;45.50;;;;;9.24;47.81;102033.94;5080425;27;45357;-84
2022/03/06 20:48:31;;;;;;;;;55.00;43.50;;;;;9.26;47.80;102034.94;5085091;27;46250;-86
2022/03/06 20:50:57;;;;;;;;;54.00;42.00;;;;;9.24;48.25;102033.03;5080146;27;45580;-86
2022/03/06 20:53:24;;;;;;;;;58.25;48.00;;;;;9.19;48.01;102034.41;5080059;27;45393;-84
2022/03/06 20:55:49;;;;;;;;;63.50;49.50;;;;;8.90;48.03;101999.66;5079551;27;45672;-87
2022/03/06 20:58:19;;;;;;;;;59.00;47.00;;;;;8.88;47.90;102009.00;5079916;27;45353;-87
2022/03/06 21:00:46;;;;;;;;;59.50;47.50;;;;;8.94;48.24;102027.53;5079445;27;45366;-87
2022/03/06 21:03:16;;;;;;;;;56.00;44.25;;;;;9.02;48.08;102048.72;5089401;27;45444;-87
2022/03/06 21:05:41;;;;;;;;;60.00;48.25;;;;;8.87;48.48;102021.03;5102194;27;45289;-88
2022/03/06 21:08:07;;;;;;;;;64.50;48.25;;;;;8.96;48.29;102036.28;5099903;27;45399;-87
2022/03/06 21:10:32;;;;;;;;;62.50;47.25;;;;;8.93;48.32;102031.78;5099139;27;45447;-87
2022/03/06 21:12:58;;;;;;;;;56.75;45.75;;;;;8.93;48.43;102048.97;5098767;27;45469;-88
2022/03/06 21:15:24;;;;;;;;;58.50;46.25;;;;;8.91;48.28;102041.09;5099928;27;45548;-86
2022/03/06 21:17:50;;;;;;;;;55.50;45.75;;;;;8.87;48.75;102045.94;5099984;27;46095;-88
2022/03/06 21:20:17;;;;;;;;;57.50;47.75;;;;;8.74;48.84;102018.34;5100326;27;45370;-88
2022/03/06 21:22:42;;;;;;;;;56.75;45.50;;;;;8.82;48.84;102032.69;5094214;27;45560;-88
2022/03/06 21:25:09;;;;;;;;;58.75;44.50;;;;;8.90;48.30;102052.25;5080926;28;45369;-89
2022/03/06 21:27:37;;;;;;;;;60.25;49.50;;;;;8.90;48.54;102048.75;5087934;28;46103;-87
2022/03/06 21:30:05;;;;;;;;;62.00;48.50;;;;;8.89;48.56;102052.09;5086936;27;45504;-88
2022/03/06 21:32:31;;;;;;;;;58.00;48.00;;;;;8.62;48.67;102008.03;5083278;28;45611;-90
2022/03/06 21:34:57;;;;;;;;;57.50;46.00;;;;;8.80;48.33;102042.03;5088369;27;45235;-85
2022/03/06 21:37:22;;;;;;;;;60.50;49.00;;;;;8.71;48.85;102031.94;5098127;27;47426;-88
2022/03/06 21:39:48;;;;;;;;;58.25;44.50;;;;;8.93;48.51;102065.34;5090501;27;45346;-88
2022/03/06 21:42:17;;;;;;;;;60.25;47.75;;;;;8.91;48.40;102058.28;5079164;27;45294;-88
2022/03/06 21:44:43;;;;;;;;;62.50;48.25;;;;;8.90;48.34;102060.00;5079370;27;45385;-88
2022/03/06 21:47:08;;;;;;;;;61.25;49.00;;;;;8.64;48.54;102022.84;5096187;27;45483;-88
2022/03/06 21:49:34;;;;;;;;;58.75;46.25;;;;;8.76;48.96;102055.50;5099737;27;45479;-88
2022/03/06 21:52:00;;;;;;;;;61.25;49.00;;;;;8.62;48.81;102044.19;5100070;27;45397;-87
2022/03/06 21:54:26;;;;;;;;;60.75;49.25;;;;;8.56;49.54;102038.56;5100224;27;45515;-86
2022/03/06 21:56:52;;;;;;;;;59.50;47.00;;;;;8.67;49.35;102058.31;5100684;27;47884;-89
2022/03/06 21:59:20;;;;;;;;;61.00;48.00;;;;;8.64;49.82;102052.91;5103039;27;45381;-88
2022/03/06 22:01:48;;;;;;;;;62.25;49.25;;;;;8.64;50.22;102052.91;5102741;27;45412;-87
2022/03/06 22:04:16;;;;;;;;;61.50;48.25;;;;;8.54;50.30;102030.72;5104287;27;45955;-86
2022/03/06 22:06:42;;;;;;;;;61.75;49.75;;;;;8.55;50.70;102054.81;5109356;27;46345;-87
2022/03/06 22:09:09;;;;;;;;;62.50;48.75;;;;;8.34;50.88;102024.03;5101759;27;45753;-89
2022/03/06 22:11:35;;;;;;;;;62.75;48.75;;;;;8.32;50.66;102017.88;5100630;27;45530;-89
2022/03/06 22:14:02;;;;;;;;;60.00;48.50;;;;;8.41;51.03;102049.53;5084692;27;45440;-90
2022/03/06 22:16:28;;;;;;;;;64.00;49.75;;;;;8.17;51.15;102015.97;5079500;28;45443;-90
2022/03/06 22:18:54;;;;;;;;;60.00;48.00;;;;;8.39;51.01;102051.09;5079220;27;45264;-89
2022/03/06 22:21:20;;;;;;;;;61.50;49.50;;;;;8.28;51.21;102029.66;5080417;27;45312;-90
2022/03/06 22:23:46;;;;;;;;;61.00;47.00;;;;;8.27;51.19;102026.97;5083356;27;45473;-89
2022/03/06 22:26:14;;;;;;;;;60.00;49.00;;;;;8.37;51.58;102050.97;5091755;27;45292;-90
2022/03/06 22:28:44;;;;;;;;;66.25;51.75;;;;;8.28;51.06;102031.34;5086114;27;45227;-89
2022/03/06 22:31:10;;;;;;;;;62.75;49.25;;;;;8.34;51.00;102036.94;5082680;28;45250;-89
2022/03/06 22:33:36;;;;;;;;;69.75;51.50;;;;;8.31;50.88;102045.38;5080240;27;45567;-90
2022/03/06 22:36:01;;;;;;;;;66.00;50.25;;;;;8.17;51.03;102018.56;5084442;27;45913;-87
2022/03/06 22:38:27;;;;;;;;;64.00;48.50;;;;;8.20;51.25;102029.13;5082984;27;45495;-89
2022/03/06 22:40:53;;;;;;;;;58.25;46.50;;;;;8.12;51.52;102019.00;5087680;28;45225;-89
2022/03/06 22:43:20;;;;;;;;;64.75;48.00;;;;;8.12;51.25;102021.59;5095448;27;45235;-81
2022/03/06 22:45:46;;;;;;;;;60.75;49.00;;;;;8.16;51.87;102041.63;5100224;28;46904;-82
2022/03/06 22:48:12;;;;;;;;;63.75;50.00;;;;;8.06;51.58;102022.91;5084951;27;45436;-89
2022/03/06 22:50:38;;;;;;;;;60.50;48.75;;;;;7.89;51.77;101993.28;5084773;27;45373;-89
2022/03/06 22:53:04;;;;;;;;;59.75;49.75;;;;;8.10;51.75;102039.50;5082221;28;45322;-88
2022/03/06 22:55:32;;;;;;;;;63.50;50.00;;;;;8.00;52.16;102014.72;5079809;28;46069;-90
2022/03/06 22:57:58;;;;;;;;;63.50;50.75;;;;;7.94;52.20;102011.66;5078781;27;45511;-89
2022/03/06 23:00:36;;;;;;;;;66.00;50.75;;;;;8.00;52.24;102025.03;5079240;27;45410;-89
2022/03/06 23:03:09;;;;;;;;;64.00;48.00;;;;;7.88;52.74;102013.81;5079829;28;45568;-90
2022/03/06 23:08:21;;;;;;;;;61.25;48.00;;;;;7.77;53.02;101987.22;5082304;28;45501;-90
2022/03/06 23:10:48;;;;;;;;;61.75;45.75;;;;;7.88;52.62;102006.94;5080230;28;45451;-89
2022/03/06 23:13:14;;;;;;;;;59.25;46.50;;;;;7.85;52.79;102000.66;5079125;28;45252;-89
2022/03/06 23:15:40;;;;;;;;;60.25;48.25;;;;;7.99;52.90;102023.25;5080565;27;45907;-90
2022/03/06 23:18:06;;;;;;;;;60.50;48.75;;;;;7.99;52.53;102024.94;5090623;28;45772;-88
2022/03/06 23:20:32;;;;;;;;;65.25;49.00;;;;;7.84;52.56;101993.72;5095314;28;45444;-87
2022/03/06 23:22:58;;;;;;;;;56.50;45.75;;;;;7.84;53.01;102001.44;5089634;27;45207;-89
2022/03/06 23:25:24;;;;;;;;;60.75;45.25;;;;;7.85;53.02;102013.56;5080533;27;45573;-87
2022/03/06 23:27:50;;;;;;;;;58.00;46.25;;;;;7.88;53.07;101998.34;5079150;28;45456;-88
2022/03/06 23:30:16;;;;;;;;;58.00;47.00;;;;;7.84;52.97;102002.38;5079084;27;45396;-87
2022/03/06 23:32:42;;;;;;;;;59.25;45.25;;;;;7.79;53.13;101995.94;5080957;28;45808;-88
2022/03/06 23:35:11;;;;;;;;;64.00;47.50;;;;;7.76;53.19;101985.44;5079753;27;45356;-87
2022/03/06 23:37:36;;;;;;;;;62.50;47.50;;;;;7.59;52.96;101968.69;5078461;27;45851;-85
2022/03/06 23:40:04;;;;;;;;;55.00;44.75;;;;;7.80;53.45;102004.59;5078466;28;45427;-89
2022/03/06 23:42:30;;;;;;;;;53.50;44.75;;;;;7.77;53.74;102004.34;5093431;27;45327;-89
2022/03/06 23:44:56;;;;;;;;;56.25;47.00;;;;;7.64;53.39;101982.81;5104251;27;46261;-88
2022/03/06 23:47:21;;;;;;;;;57.25;47.00;;;;;7.85;53.47;102013.56;5101417;27;45320;-89
2022/03/06 23:49:47;;;;;;;;;48.75;37.25;;;;;7.78;53.60;102014.78;5102491;27;45444;-89
2022/03/06 23:52:13;;;;;;;;;51.75;42.25;;;;;7.58;53.89;101996.13;5102682;27;45333;-88
2022/03/06 23:54:39;;;;;;;;;55.75;45.00;;;;;7.67;54.39;102016.56;5105347;27;45823;-88
2022/03/06 23:57:04;;;;;;;;;57.00;44.50;;;;;7.60;54.18;102006.56;5106362;27;45294;-87
2022/03/06 23:59:30;;;;;;;;;58.25;45.75;;;;;7.62;54.51;102017.88;5098670;27;45435;-86
